createdAt,value
2023-04-11T00:01:57.225Z,35.97
2023-04-11T00:04:25.662Z,33.45
2023-04-11T00:06:55.368Z,29.52
2023-04-11T00:09:24.023Z,32.85
2023-04-11T00:11:52.114Z,36.47
2023-04-11T00:14:20.888Z,30.20
2023-04-11T00:16:50.164Z,30.67
2023-04-11T00:19:18.419Z,37.85
2023-04-11T00:21:46.576Z,38.97
2023-04-11T00:24:16.647Z,36.13
2023-04-11T00:26:44.817Z,34.80
2023-04-11T00:29:12.956Z,34.20
2023-04-11T00:31:41.858Z,32.80
2023-04-11T00:34:10.054Z,35.67
2023-04-11T00:36:38.338Z,26.65
2023-04-11T00:39:07.386Z,33.08
2023-04-11T00:41:36.880Z,32.72
2023-04-11T00:44:05.170Z,35.20
2023-04-11T00:46:36.215Z,37.85
2023-04-11T00:49:04.483Z,38.45
2023-04-11T00:51:32.716Z,31.48
2023-04-11T00:54:02.328Z,33.17
2023-04-11T00:56:31.216Z,34.33
2023-04-11T00:59:00.778Z,34.63
2023-04-11T01:01:30.335Z,28.00
2023-04-11T01:04:00.870Z,33.80
2023-04-11T01:06:32.543Z,35.60
2023-04-11T01:09:01.288Z,36.95
2023-04-11T01:11:29.624Z,29.27
2023-04-11T01:13:57.885Z,36.92
2023-04-11T01:16:27.789Z,34.13
2023-04-11T01:18:56.638Z,34.28
2023-04-11T01:21:27.123Z,31.55
2023-04-11T01:23:58.679Z,37.63
2023-04-11T01:26:26.887Z,35.97
2023-04-11T01:28:55.356Z,33.38
2023-04-11T01:31:23.888Z,30.38
2023-04-11T01:33:52.056Z,35.03
2023-04-11T01:36:20.524Z,28.30
2023-04-11T01:38:49.562Z,31.50
2023-04-11T01:41:21.141Z,40.67
2023-04-11T01:43:50.017Z,35.85
2023-04-11T01:46:18.960Z,31.83
2023-04-11T01:48:47.233Z,35.42
2023-04-11T01:51:15.479Z,29.33
2023-04-11T01:53:46.067Z,38.38
2023-04-11T01:56:14.632Z,36.92
2023-04-11T01:58:44.582Z,35.30
2023-04-11T02:01:13.515Z,32.30
2023-04-11T02:03:41.853Z,26.98
2023-04-11T02:06:10.377Z,28.83
2023-04-11T02:08:38.813Z,32.13
2023-04-11T02:11:08.155Z,29.20
2023-04-11T02:13:36.857Z,28.80
2023-04-11T02:16:15.520Z,29.15
2023-04-11T02:18:47.095Z,37.90
2023-04-11T02:21:15.463Z,32.03
2023-04-11T02:23:43.661Z,26.27
2023-04-11T02:26:12.295Z,26.95
2023-04-11T02:28:40.484Z,24.77
2023-04-11T02:31:10.133Z,30.40
2023-04-11T02:33:38.515Z,34.03
2023-04-11T02:36:07.385Z,30.13
2023-04-11T02:38:37.824Z,32.28
2023-04-11T02:41:07.993Z,33.30
2023-04-11T02:43:36.462Z,27.17
2023-04-11T02:46:12.547Z,23.75
2023-04-11T02:48:43.150Z,35.50
2023-04-11T02:51:11.775Z,26.98
2023-04-11T02:53:40.004Z,31.10
2023-04-11T02:56:12.004Z,27.00
2023-04-11T02:58:43.587Z,36.92
2023-04-11T03:01:12.239Z,28.70
2023-04-11T03:03:40.612Z,31.98
2023-04-11T03:06:11.155Z,21.95
2023-04-11T03:08:39.353Z,28.85
2023-04-11T03:11:07.613Z,27.23
2023-04-11T03:13:37.381Z,31.70
2023-04-11T03:16:06.590Z,25.60
2023-04-11T03:18:34.814Z,22.38
2023-04-11T03:21:03.367Z,27.92
2023-04-11T03:23:33.118Z,28.83
2023-04-11T03:26:01.450Z,28.38
2023-04-11T03:28:30.083Z,35.20
2023-04-11T03:30:58.286Z,35.33
2023-04-11T03:33:26.484Z,34.95
2023-04-11T03:35:55.313Z,34.78
2023-04-11T03:38:23.967Z,30.60
2023-04-11T03:40:55.432Z,32.28
2023-04-11T03:43:24.075Z,24.88
2023-04-11T03:45:53.485Z,25.05
2023-04-11T03:48:21.883Z,30.80
2023-04-11T03:50:50.609Z,30.83
2023-04-11T03:53:18.684Z,31.83
2023-04-11T03:55:46.852Z,30.45
2023-04-11T03:58:17.016Z,27.33
2023-04-11T04:00:46.314Z,28.77
2023-04-11T04:03:15.350Z,20.30
2023-04-11T04:05:44.077Z,27.20
2023-04-11T04:08:12.179Z,24.95
2023-04-11T04:10:40.447Z,27.15
2023-04-11T04:13:08.997Z,29.60
2023-04-11T04:15:41.077Z,23.52
2023-04-11T04:18:09.815Z,22.95
2023-04-11T04:20:38.008Z,29.92
2023-04-11T04:23:06.152Z,30.52
2023-04-11T04:25:34.679Z,26.17
2023-04-11T04:28:03.255Z,23.73
2023-04-11T04:30:31.391Z,24.42
2023-04-11T04:33:01.711Z,25.38
2023-04-11T04:35:29.911Z,24.33
2023-04-11T04:37:58.121Z,20.50
2023-04-11T04:40:27.640Z,24.15
2023-04-11T04:42:59.185Z,22.73
2023-04-11T04:45:27.385Z,23.95
2023-04-11T04:47:55.935Z,24.83
2023-04-11T04:50:25.705Z,26.20
2023-04-11T04:52:53.982Z,28.08
2023-04-11T04:55:22.301Z,24.08
2023-04-11T04:57:50.514Z,27.30
2023-04-11T05:00:21.758Z,17.90
2023-04-11T05:02:55.163Z,21.30
2023-04-11T05:05:25.928Z,26.90
2023-04-11T05:07:54.126Z,20.05
2023-04-11T05:10:22.684Z,23.65
2023-04-11T05:12:53.284Z,28.45
2023-04-11T05:15:23.726Z,22.73
2023-04-11T05:17:51.874Z,22.75
2023-04-11T05:20:20.142Z,26.23
2023-04-11T05:22:51.136Z,22.80
2023-04-11T05:25:19.336Z,23.88
2023-04-11T05:27:47.570Z,23.90
2023-04-11T05:30:17.005Z,22.00
2023-04-11T05:32:46.552Z,24.63
2023-04-11T05:35:14.855Z,22.08
2023-04-11T05:37:43.367Z,17.27
2023-04-11T05:40:13.398Z,22.83
2023-04-11T05:42:41.578Z,22.95
2023-04-11T05:45:11.174Z,23.42
2023-04-11T05:47:39.466Z,16.48
2023-04-11T05:50:08.786Z,14.93
2023-04-11T05:52:37.693Z,15.02
2023-04-11T05:55:06.882Z,20.52
2023-04-11T05:57:36.654Z,13.68
2023-04-11T06:00:13.118Z,19.83
2023-04-11T06:02:42.879Z,18.13
2023-04-11T06:05:12.247Z,16.65
2023-04-11T06:07:41.513Z,14.57
2023-04-11T06:10:10.970Z,15.05
2023-04-11T06:12:40.581Z,16.38
2023-04-11T06:15:12.012Z,20.15
2023-04-11T06:17:40.235Z,14.55
2023-04-11T06:20:10.296Z,16.17
2023-04-11T06:22:40.315Z,14.80
2023-04-11T06:25:09.296Z,18.70
2023-04-11T06:27:37.801Z,11.68
2023-04-11T06:30:09.266Z,15.63
2023-04-11T06:32:37.397Z,17.10
2023-04-11T06:35:06.182Z,21.63
2023-04-11T06:37:34.649Z,15.75
2023-04-11T06:40:05.411Z,14.02
2023-04-11T06:42:33.531Z,13.43
2023-04-11T06:45:02.736Z,17.35
2023-04-11T06:47:32.399Z,18.33
2023-04-11T06:50:00.537Z,14.75
2023-04-11T06:52:29.071Z,13.70
2023-04-11T06:54:57.385Z,14.85
2023-04-11T06:57:25.946Z,16.70
2023-04-11T06:59:54.394Z,13.55
2023-04-11T07:02:25.200Z,13.80
2023-04-11T07:04:55.294Z,16.88
2023-04-11T07:07:23.719Z,16.45
2023-04-11T07:09:51.929Z,13.40
2023-04-11T07:12:20.132Z,12.45
2023-04-11T07:14:48.488Z,15.93
2023-04-11T07:17:16.861Z,18.27
2023-04-11T07:19:45.202Z,17.15
2023-04-11T07:22:14.918Z,13.68
2023-04-11T07:24:43.588Z,31.08
2023-04-11T07:27:14.253Z,13.50
2023-04-11T07:29:42.757Z,16.02
2023-04-11T07:32:10.903Z,14.13
2023-04-11T07:34:39.502Z,13.02
2023-04-11T07:37:07.693Z,13.68
2023-04-11T07:39:37.363Z,12.20
2023-04-11T07:42:05.825Z,13.77
2023-04-11T07:44:34.188Z,15.00
2023-04-11T07:47:02.321Z,12.15
2023-04-11T07:49:31.813Z,13.68
2023-04-11T07:52:00.455Z,12.68
2023-04-11T07:54:28.630Z,13.48
2023-04-11T07:56:58.301Z,13.60
2023-04-11T07:59:26.448Z,14.32
2023-04-11T08:02:01.133Z,13.23
2023-04-11T08:04:35.509Z,12.77
2023-04-11T08:07:04.042Z,11.13
2023-04-11T08:09:32.517Z,12.88
2023-04-11T08:12:02.497Z,15.65
2023-04-11T08:14:30.766Z,9.90
2023-04-11T08:17:00.196Z,15.35
2023-04-11T08:19:28.742Z,10.13
2023-04-11T08:21:56.934Z,13.45
2023-04-11T08:24:25.079Z,12.55
2023-04-11T08:26:53.338Z,10.05
2023-04-11T08:29:23.018Z,11.25
2023-04-11T08:31:51.201Z,12.30
2023-04-11T08:34:19.487Z,12.95
2023-04-11T08:36:47.829Z,10.02
2023-04-11T08:39:15.960Z,10.05
2023-04-11T08:41:44.451Z,7.47
2023-04-11T08:44:13.256Z,11.77
2023-04-11T08:46:44.312Z,8.30
2023-04-11T08:49:12.857Z,12.48
2023-04-11T08:51:45.009Z,8.23
2023-04-11T08:54:13.658Z,11.23
2023-04-11T08:56:43.438Z,10.98
2023-04-11T08:59:11.636Z,12.57
2023-04-11T09:01:40.871Z,10.23
2023-04-11T09:04:11.488Z,14.23
2023-04-11T09:06:40.484Z,14.25
2023-04-11T09:09:09.745Z,11.55
2023-04-11T09:11:54.551Z,15.07
2023-04-11T09:14:27.122Z,11.10
2023-04-11T09:16:57.556Z,14.30
2023-04-11T09:19:28.086Z,11.45
2023-04-11T09:21:58.352Z,15.98
2023-04-11T09:24:27.101Z,11.60
2023-04-11T09:27:11.498Z,12.68
2023-04-11T09:29:42.186Z,16.88
2023-04-11T09:32:31.427Z,15.73
2023-04-11T09:35:11.452Z,12.68
2023-04-11T09:37:48.019Z,12.77
2023-04-11T09:40:18.426Z,14.52
2023-04-11T09:42:48.751Z,11.35
2023-04-11T09:45:21.144Z,15.65
2023-04-11T09:47:50.946Z,14.15
2023-04-11T09:50:21.351Z,14.25
2023-04-11T09:52:50.197Z,10.25
2023-04-11T09:55:21.649Z,17.50
2023-04-11T09:57:51.262Z,15.57
2023-04-11T10:00:21.844Z,12.93
2023-04-11T10:02:53.339Z,13.32
2023-04-11T10:05:27.564Z,12.63
2023-04-11T10:08:02.181Z,13.13
2023-04-11T10:10:30.789Z,13.48
2023-04-11T10:12:59.035Z,12.10
2023-04-11T10:15:27.740Z,14.80
2023-04-11T10:18:12.508Z,13.20
2023-04-11T10:20:50.498Z,11.73
2023-04-11T10:23:22.606Z,13.57
2023-04-11T10:25:52.798Z,15.75
2023-04-11T10:28:38.243Z,12.70
2023-04-11T10:31:10.023Z,9.70
2023-04-11T10:33:39.750Z,12.05
2023-04-11T10:36:11.436Z,10.68
2023-04-11T10:38:49.893Z,8.98
2023-04-11T10:41:32.004Z,8.88
2023-04-11T10:44:15.706Z,11.15
2023-04-11T10:46:49.570Z,8.93
2023-04-11T10:49:41.949Z,8.85
2023-04-11T10:52:25.260Z,9.13
2023-04-11T10:54:55.397Z,6.85
2023-04-11T10:57:23.820Z,11.90
2023-04-11T11:00:02.121Z,10.10
2023-04-11T11:02:41.171Z,10.00
2023-04-11T11:05:20.598Z,10.20
2023-04-11T11:07:54.472Z,9.38
2023-04-11T11:10:42.761Z,11.48
2023-04-11T11:13:11.527Z,9.90
2023-04-11T11:15:39.945Z,9.20
2023-04-11T11:18:10.434Z,9.05
2023-04-11T11:20:38.983Z,10.30
2023-04-11T11:23:09.995Z,13.02
2023-04-11T11:25:39.034Z,10.57
2023-04-11T11:28:08.986Z,10.40
2023-04-11T11:30:38.081Z,11.90
2023-04-11T11:33:19.933Z,8.70
2023-04-11T11:35:54.201Z,10.38
2023-04-11T11:38:27.217Z,9.93
2023-04-11T11:40:55.909Z,10.30
2023-04-11T11:43:24.561Z,7.35
2023-04-11T11:46:09.091Z,8.15
2023-04-11T11:48:37.862Z,11.10
2023-04-11T11:51:07.135Z,8.30
2023-04-11T11:53:37.494Z,10.10
2023-04-11T11:56:16.352Z,10.30
2023-04-11T11:58:46.107Z,9.57
2023-04-11T12:01:17.045Z,9.52
2023-04-11T12:03:48.270Z,8.05
2023-04-11T12:06:17.321Z,10.25
2023-04-11T12:08:51.755Z,10.95
2023-04-11T12:11:20.007Z,10.55
2023-04-11T12:13:54.142Z,8.85
2023-04-11T12:16:23.816Z,10.98
2023-04-11T12:18:52.118Z,10.93
2023-04-11T12:21:20.633Z,5.55
2023-04-11T12:23:50.358Z,8.75
2023-04-11T12:26:21.033Z,8.98
2023-04-11T12:28:50.686Z,9.30
2023-04-11T12:31:20.138Z,8.77
2023-04-11T12:33:48.529Z,8.45
2023-04-11T12:36:17.413Z,8.27
2023-04-11T12:38:45.688Z,11.32
2023-04-11T12:41:31.762Z,11.00
2023-04-11T12:44:02.631Z,7.72
2023-04-11T12:46:31.045Z,9.52
2023-04-11T12:48:59.416Z,7.63
2023-04-11T12:51:27.792Z,7.32
2023-04-11T12:53:55.961Z,9.50
2023-04-11T12:56:25.513Z,9.05
2023-04-11T12:58:54.393Z,10.57
2023-04-11T13:01:23.654Z,12.60
2023-04-11T13:03:52.154Z,10.80
2023-04-11T13:06:20.898Z,9.43
2023-04-11T13:08:49.053Z,7.78
2023-04-11T13:11:17.261Z,9.77
2023-04-11T13:13:47.072Z,8.75
2023-04-11T13:16:15.872Z,7.20
2023-04-11T13:18:44.169Z,9.50
2023-04-11T13:21:12.934Z,8.25
2023-04-11T13:23:41.148Z,8.70
2023-04-11T13:26:09.685Z,6.80
2023-04-11T13:28:39.129Z,9.30
2023-04-11T13:31:10.503Z,7.47
2023-04-11T13:33:40.623Z,4.10
2023-04-11T13:36:10.080Z,7.70
2023-04-11T13:38:38.611Z,7.07
2023-04-11T13:41:07.424Z,6.97
2023-04-11T13:43:35.895Z,9.52
2023-04-11T13:46:04.116Z,7.10
2023-04-11T13:48:34.181Z,6.72
2023-04-11T13:51:02.369Z,7.50
2023-04-11T13:53:30.488Z,7.65
2023-04-11T13:55:59.101Z,5.45
2023-04-11T13:58:27.320Z,7.88
2023-04-11T14:00:55.732Z,6.47
2023-04-11T14:03:25.360Z,9.63
2023-04-11T14:05:54.985Z,8.60
2023-04-11T14:08:23.088Z,6.05
2023-04-11T14:10:51.966Z,6.40
2023-04-11T14:13:20.620Z,8.27
2023-04-11T14:15:54.847Z,9.63
2023-04-11T14:18:33.743Z,9.73
2023-04-11T14:21:03.498Z,9.55
2023-04-11T14:23:32.044Z,6.05
2023-04-11T14:26:00.717Z,8.15
2023-04-11T14:28:28.875Z,8.13
2023-04-11T14:30:57.392Z,7.43
2023-04-11T14:33:26.546Z,9.20
2023-04-11T14:35:54.750Z,7.15
2023-04-11T14:38:24.298Z,9.45
2023-04-11T14:40:52.837Z,9.45
2023-04-11T14:43:20.968Z,8.77
2023-04-11T14:45:49.120Z,6.07
2023-04-11T14:48:17.864Z,5.80
2023-04-11T14:50:46.136Z,9.18
2023-04-11T14:53:14.449Z,8.05
2023-04-11T14:55:44.748Z,7.55
2023-04-11T14:58:12.986Z,5.07
2023-04-11T15:00:41.936Z,8.80
2023-04-11T15:03:10.977Z,8.88
2023-04-11T15:05:39.259Z,7.88
2023-04-11T15:08:08.189Z,5.70
2023-04-11T15:10:36.600Z,7.15
2023-04-11T15:13:07.085Z,9.77
2023-04-11T15:15:35.410Z,5.63
2023-04-11T15:18:23.967Z,6.45
2023-04-11T15:20:53.486Z,8.88
2023-04-11T15:23:22.522Z,8.27
2023-04-11T15:25:54.708Z,7.90
2023-04-11T15:28:25.294Z,8.05
2023-04-11T15:30:55.003Z,10.25
2023-04-11T15:33:24.491Z,8.68
2023-04-11T15:35:54.311Z,8.27
2023-04-11T15:38:22.978Z,11.38
2023-04-11T15:40:51.514Z,8.38
2023-04-11T15:43:19.969Z,10.90
2023-04-11T15:45:50.154Z,9.88
2023-04-11T15:48:18.604Z,10.00
2023-04-11T15:50:46.843Z,14.90
2023-04-11T15:53:15.051Z,10.63
2023-04-11T15:55:44.525Z,12.32
2023-04-11T15:58:12.726Z,12.60
2023-04-11T16:00:44.009Z,7.90
2023-04-11T16:03:14.344Z,10.63
2023-04-11T16:05:43.291Z,10.02
2023-04-11T16:08:11.830Z,9.32
2023-04-11T16:10:40.142Z,9.75
2023-04-11T16:13:08.724Z,7.45
2023-04-11T16:15:36.900Z,10.18
2023-04-11T16:18:05.814Z,8.35
2023-04-11T16:20:35.831Z,8.85
2023-04-11T16:23:04.324Z,11.18
2023-04-11T16:25:33.060Z,11.88
2023-04-11T16:28:01.173Z,10.43
2023-04-11T16:30:29.451Z,9.88
2023-04-11T16:32:57.778Z,9.02
2023-04-11T16:35:25.957Z,8.90
2023-04-11T16:37:55.888Z,9.02
2023-04-11T16:40:24.170Z,10.18
2023-04-11T16:42:52.594Z,10.73
2023-04-11T16:45:21.345Z,8.02
2023-04-11T16:47:49.801Z,8.20
2023-04-11T16:50:18.727Z,7.25
2023-04-11T16:52:47.454Z,6.40
2023-04-11T16:55:18.261Z,9.98
2023-04-11T16:57:46.686Z,8.30
2023-04-11T17:00:20.405Z,8.23
2023-04-11T17:02:48.755Z,8.27
2023-04-11T17:05:19.205Z,7.40
2023-04-11T17:07:47.575Z,9.07
2023-04-11T17:10:17.279Z,10.23
2023-04-11T17:12:45.573Z,10.18
2023-04-11T17:15:13.803Z,12.07
2023-04-11T17:17:42.020Z,10.73
2023-04-11T17:20:12.197Z,12.07
2023-04-11T17:22:43.693Z,12.18
2023-04-11T17:25:12.080Z,10.68
2023-04-11T17:27:41.914Z,12.30
2023-04-11T17:30:12.531Z,11.50
2023-04-11T17:32:40.753Z,10.85
2023-04-11T17:35:09.493Z,11.95
2023-04-11T17:37:39.899Z,12.32
2023-04-11T17:40:14.243Z,13.18
2023-04-11T17:42:46.015Z,11.65
2023-04-11T17:45:18.170Z,10.10
2023-04-11T17:47:48.128Z,10.27
2023-04-11T17:50:17.449Z,15.18
2023-04-11T17:52:47.467Z,11.55
2023-04-11T17:55:17.859Z,10.65
2023-04-11T17:57:49.348Z,13.38
2023-04-11T18:00:23.409Z,11.85
2023-04-11T18:02:53.552Z,13.10
2023-04-11T18:05:24.846Z,12.77
2023-04-11T18:07:56.708Z,8.93
2023-04-11T18:10:27.198Z,7.90
2023-04-11T18:12:58.607Z,10.02
2023-04-11T18:15:27.942Z,9.60
2023-04-11T18:17:56.268Z,9.52
2023-04-11T18:20:25.045Z,10.02
2023-04-11T18:22:56.129Z,10.48
2023-04-11T18:25:24.784Z,13.63
2023-04-11T18:27:53.471Z,11.52
2023-04-11T18:30:23.276Z,13.65
2023-04-11T18:32:53.796Z,13.48
2023-04-11T18:35:22.762Z,10.55
2023-04-11T18:37:51.686Z,11.57
2023-04-11T18:40:19.904Z,10.07
2023-04-11T18:42:50.987Z,11.70
2023-04-11T18:45:22.351Z,12.35
2023-04-11T18:47:51.689Z,12.13
2023-04-11T18:50:20.593Z,12.00
2023-04-11T18:52:52.690Z,15.10
2023-04-11T18:55:23.590Z,18.92
2023-04-11T18:57:55.138Z,17.60
2023-04-11T19:00:27.905Z,11.52
2023-04-11T19:02:56.495Z,11.25
2023-04-11T19:05:25.875Z,10.65
2023-04-11T19:07:54.665Z,11.52
2023-04-11T19:10:22.919Z,10.48
2023-04-11T19:12:51.222Z,9.27
2023-04-11T19:15:19.749Z,9.68
2023-04-11T19:17:49.374Z,11.07
2023-04-11T19:20:18.977Z,11.27
2023-04-11T19:22:47.420Z,9.40
2023-04-11T19:25:15.902Z,11.55
2023-04-11T19:27:46.233Z,8.02
2023-04-11T19:30:15.108Z,9.70
2023-04-11T19:32:46.040Z,6.45
2023-04-11T19:35:16.722Z,8.48
2023-04-11T19:37:44.914Z,9.50
2023-04-11T19:40:13.940Z,7.53
2023-04-11T19:42:42.491Z,9.07
2023-04-11T19:45:11.887Z,9.48
2023-04-11T19:47:40.996Z,8.88
2023-04-11T19:50:13.128Z,8.82
2023-04-11T19:52:43.875Z,7.90
2023-04-11T19:55:12.989Z,9.25
2023-04-11T19:57:43.518Z,10.13
2023-04-11T20:00:14.258Z,7.35
2023-04-11T20:02:48.228Z,9.65
2023-04-11T20:07:47.919Z,9.10
2023-04-11T20:10:17.476Z,9.48
2023-04-11T20:12:46.116Z,10.30
2023-04-11T20:15:14.790Z,9.60
2023-04-11T20:17:45.800Z,10.48
2023-04-11T20:20:15.786Z,8.85
2023-04-11T20:22:45.926Z,10.40
2023-04-11T20:25:15.785Z,8.52
2023-04-11T20:27:44.351Z,10.85
2023-04-11T20:30:14.473Z,9.43
2023-04-11T20:32:43.299Z,8.20
2023-04-11T20:35:13.071Z,9.77
2023-04-11T20:37:43.797Z,10.50
2023-04-11T20:40:14.170Z,13.70
2023-04-11T20:42:46.072Z,9.38
2023-04-11T20:45:15.789Z,8.45
2023-04-11T20:47:46.456Z,10.95
2023-04-11T20:50:17.034Z,12.55
2023-04-11T20:52:48.021Z,11.57
2023-04-11T20:55:16.222Z,12.23
2023-04-11T20:57:46.610Z,7.25
2023-04-11T21:00:17.583Z,12.25
2023-04-11T21:02:50.253Z,6.47
2023-04-11T21:05:19.855Z,7.82
2023-04-11T21:07:47.958Z,8.30
2023-04-11T21:10:16.768Z,9.00
2023-04-11T21:12:51.961Z,10.30
2023-04-11T21:15:21.003Z,10.93
2023-04-11T21:17:50.379Z,8.40
2023-04-11T21:20:19.985Z,13.05
2023-04-11T21:22:49.508Z,11.70
2023-04-11T21:25:18.100Z,11.13
2023-04-11T21:27:48.361Z,10.65
2023-04-11T21:30:16.793Z,9.02
2023-04-11T21:32:45.602Z,11.65
2023-04-11T21:35:14.037Z,10.65
2023-04-11T21:37:42.126Z,10.90
2023-04-11T21:40:11.117Z,10.05
2023-04-11T21:42:39.825Z,8.38
2023-04-11T21:45:10.549Z,11.15
2023-04-11T21:47:38.850Z,7.88
2023-04-11T21:50:08.435Z,9.75
2023-04-11T21:52:36.555Z,9.15
2023-04-11T21:55:07.301Z,9.02
2023-04-11T21:57:37.090Z,11.10
2023-04-11T22:00:06.756Z,12.00
2023-04-11T22:02:36.875Z,10.27
2023-04-11T22:05:07.127Z,7.53
2023-04-11T22:07:39.525Z,11.13
2023-04-11T22:10:12.141Z,9.05
2023-04-11T22:12:41.892Z,9.40
2023-04-11T22:15:12.674Z,11.52
2023-04-11T22:17:43.907Z,9.35
2023-04-11T22:20:13.434Z,10.05
2023-04-11T22:22:42.231Z,11.25
2023-04-11T22:25:11.807Z,8.63
2023-04-11T22:27:39.922Z,12.10
2023-04-11T22:30:09.852Z,9.05
2023-04-11T22:32:38.267Z,11.95
2023-04-11T22:35:09.588Z,10.68
2023-04-11T22:37:37.690Z,11.45
2023-04-11T22:40:11.951Z,9.82
2023-04-11T22:42:40.428Z,10.48
2023-04-11T22:45:09.557Z,10.40
2023-04-11T22:47:38.181Z,7.97
2023-04-11T22:50:09.472Z,9.85
2023-04-11T22:52:37.894Z,11.82
2023-04-11T22:55:07.633Z,11.93
2023-04-11T22:57:36.991Z,10.02
2023-04-11T23:00:07.200Z,10.50
2023-04-11T23:02:37.645Z,7.75
2023-04-11T23:05:09.519Z,9.88
2023-04-11T23:07:37.684Z,10.32
2023-04-11T23:10:10.663Z,9.40
2023-04-11T23:12:38.942Z,12.32
2023-04-11T23:15:08.048Z,7.20
2023-04-11T23:17:37.993Z,8.45
2023-04-11T23:20:10.987Z,6.65
2023-04-11T23:22:39.477Z,8.18
2023-04-11T23:25:08.310Z,8.52
2023-04-11T23:27:36.444Z,8.95
2023-04-11T23:30:06.066Z,7.85
2023-04-11T23:32:34.525Z,7.00
2023-04-11T23:35:02.982Z,6.95
2023-04-11T23:37:32.746Z,5.78
2023-04-11T23:40:05.393Z,7.13
2023-04-11T23:42:33.761Z,7.55
2023-04-11T23:45:01.877Z,8.18
2023-04-11T23:47:30.205Z,6.30
2023-04-11T23:49:58.504Z,7.47
2023-04-11T23:52:26.807Z,7.65
2023-04-11T23:54:56.423Z,5.88
2023-04-11T23:57:24.963Z,6.75
2023-04-11T23:59:53.633Z,7.40
